createdAt,value
2022-10-14T10:58:37.797Z,30.05
2022-10-14T11:04:03.237Z,27.60
2022-10-14T11:09:36.471Z,32.58
2022-10-14T11:15:10.172Z,28.42
2022-10-14T11:20:30.582Z,30.27
2022-10-14T11:25:49.642Z,26.00
2022-10-14T11:31:07.932Z,29.25
2022-10-14T11:36:29.090Z,20.63
2022-10-14T11:41:59.389Z,32.47
2022-10-14T11:47:13.952Z,24.85
2022-10-14T11:52:27.489Z,26.40
2022-10-14T11:57:38.519Z,25.80
2022-10-14T12:02:54.493Z,23.35
2022-10-14T12:08:11.615Z,20.80
2022-10-14T12:13:23.243Z,30.88
2022-10-14T12:18:33.155Z,27.05
2022-10-14T12:23:45.231Z,23.80
2022-10-14T12:28:54.029Z,22.33
2022-10-14T12:34:35.011Z,27.23
2022-10-14T12:39:44.916Z,27.38
2022-10-14T12:44:56.424Z,22.45
2022-10-14T12:50:23.825Z,21.02
2022-10-14T12:55:35.179Z,21.95
2022-10-14T13:00:44.691Z,23.20
2022-10-14T13:05:52.671Z,21.88
2022-10-14T13:11:14.876Z,27.42
2022-10-14T13:17:28.995Z,20.33
2022-10-14T13:22:41.686Z,21.33
2022-10-14T13:28:23.235Z,21.65
2022-10-14T13:33:39.891Z,22.70
2022-10-14T13:38:56.852Z,26.25
2022-10-14T13:44:04.114Z,23.88
2022-10-14T13:54:31.464Z,34.10
2022-10-14T13:59:43.945Z,33.45
2022-10-14T14:05:17.026Z,26.30
2022-10-14T14:10:26.759Z,23.17
2022-10-14T14:15:32.918Z,20.73
2022-10-14T14:20:38.871Z,24.50
2022-10-14T14:26:17.841Z,27.58
2022-10-14T14:31:20.903Z,28.73
2022-10-14T14:36:50.143Z,24.83
2022-10-14T14:42:01.161Z,24.70
2022-10-14T14:47:07.656Z,22.30
2022-10-14T14:52:15.526Z,21.13
2022-10-14T14:57:24.345Z,20.25
2022-10-14T15:02:34.554Z,20.90
2022-10-14T15:07:45.114Z,19.13
2022-10-14T15:12:57.348Z,26.55
2022-10-14T15:18:21.489Z,23.58
2022-10-14T15:23:42.026Z,27.80
2022-10-14T15:29:03.481Z,23.23
2022-10-14T15:34:20.922Z,24.27
2022-10-14T15:39:27.028Z,36.95
2022-10-14T15:44:35.436Z,38.70
2022-10-14T15:49:43.991Z,30.75
2022-10-14T15:54:51.098Z,26.67
2022-10-14T15:59:58.877Z,28.98
2022-10-14T16:05:21.089Z,30.52
2022-10-14T16:10:32.050Z,28.85
2022-10-14T16:15:50.069Z,38.58
2022-10-14T16:20:57.569Z,45.20
2022-10-14T16:26:06.060Z,40.53
2022-10-14T16:31:16.121Z,44.95
2022-10-14T16:36:23.583Z,40.97
2022-10-14T16:41:31.177Z,40.47
2022-10-14T16:46:56.303Z,33.63
2022-10-14T16:52:02.445Z,31.50
2022-10-14T16:57:09.520Z,33.88
2022-10-14T17:02:18.476Z,31.17
2022-10-14T17:07:24.811Z,35.53
2022-10-14T17:12:31.091Z,60.80
2022-10-14T17:17:40.380Z,67.35
2022-10-14T17:22:46.558Z,65.22
2022-10-14T17:27:52.631Z,58.47
2022-10-14T17:33:00.287Z,55.03
2022-10-14T17:38:07.612Z,45.00
2022-10-14T17:43:13.700Z,35.63
2022-10-14T17:48:21.052Z,29.92
2022-10-14T17:53:28.117Z,25.67
2022-10-14T17:58:34.370Z,24.90
2022-10-14T18:03:45.266Z,25.88
2022-10-14T18:08:54.945Z,28.00
2022-10-14T18:14:04.770Z,27.88
2022-10-14T18:19:17.246Z,22.00
2022-10-14T18:24:24.120Z,22.50
2022-10-14T18:29:30.415Z,25.05
2022-10-14T18:34:38.620Z,42.75
2022-10-14T18:39:46.198Z,51.33
2022-10-14T18:44:52.967Z,41.10
2022-10-14T18:50:00.564Z,36.67
2022-10-14T18:55:07.964Z,35.17
2022-10-14T19:00:17.794Z,43.63
2022-10-14T19:05:29.614Z,41.03
2022-10-14T19:10:39.087Z,37.95
2022-10-14T19:15:51.401Z,33.05
2022-10-14T19:21:09.628Z,52.47
2022-10-14T19:26:19.718Z,31.13
2022-10-14T19:31:29.595Z,37.95
2022-10-14T19:36:40.619Z,38.33
2022-10-14T19:41:47.872Z,39.50
2022-10-14T19:46:54.693Z,44.55
2022-10-14T19:52:02.780Z,41.65
2022-10-14T19:57:09.146Z,36.70
2022-10-14T20:02:15.203Z,27.50
2022-10-14T20:07:23.251Z,30.08
2022-10-14T20:12:29.898Z,41.67
2022-10-14T20:17:36.158Z,37.78
2022-10-14T20:22:43.707Z,31.90
2022-10-14T20:27:50.961Z,36.47
2022-10-14T20:32:57.364Z,37.33
2022-10-14T20:38:05.886Z,29.83
2022-10-14T20:43:14.178Z,31.65
2022-10-14T20:48:20.668Z,35.00
2022-10-14T20:53:29.175Z,42.72
2022-10-14T20:58:35.443Z,41.30
2022-10-14T21:03:43.252Z,36.70
2022-10-14T21:08:52.686Z,37.60
2022-10-14T21:20:11.945Z,24.83
2022-10-14T21:25:19.857Z,37.15
2022-10-14T21:30:26.318Z,36.22
2022-10-14T21:35:32.764Z,38.63
2022-10-14T21:40:40.578Z,34.70
2022-10-14T21:45:46.951Z,37.42
2022-10-14T21:51:04.463Z,47.78
2022-10-14T21:56:15.990Z,35.70
2022-10-14T22:01:26.393Z,30.25
2022-10-14T22:06:34.278Z,33.13
2022-10-14T22:11:43.378Z,33.95
2022-10-14T22:16:50.294Z,41.35
2022-10-14T22:21:59.477Z,39.58
2022-10-14T22:27:07.499Z,45.08
2022-10-14T22:32:16.310Z,42.60
2022-10-14T22:42:32.186Z,34.95
2022-10-14T22:47:38.418Z,38.53
2022-10-14T22:52:44.632Z,32.95
2022-10-14T22:57:52.906Z,39.30
2022-10-14T23:02:59.195Z,52.30
2022-10-14T23:08:10.057Z,43.90
2022-10-14T23:13:17.746Z,51.20
2022-10-14T23:18:24.214Z,32.97
2022-10-14T23:23:30.586Z,33.05
2022-10-14T23:28:38.712Z,32.67
2022-10-14T23:33:45.310Z,36.10
2022-10-14T23:38:53.133Z,45.03
2022-10-14T23:44:00.938Z,36.70
2022-10-14T23:49:21.214Z,41.47
2022-10-14T23:54:31.366Z,43.10
2022-10-14T23:59:40.016Z,36.58
